Time;durP1;ratioP1;P1;durP2;ratioP2;P2;SDS_P1;SDS_P2;PMS_P1;PMS_P2;Temp;Humidity;BMP_temperature;BMP_pressure;BME280_temperature;BME280_humidity;BME280_pressure;Samples;Min_cycle;Max_cycle;Signal;HPM_P1;HPM_P2
2022/08/06 00:01:38;;;;;;;5.70;4.80;;;20.40;95.60;;;;;;6153281;23;20429;-77
2022/08/06 00:04:06;;;;;;;4.50;2.50;;;20.40;95.60;;;;;;6150969;23;21185;-75
2022/08/06 00:06:33;;;;;;;8.70;7.90;;;20.30;95.50;;;;;;6154109;23;20739;-76
2022/08/06 00:09:01;;;;;;;8.00;7.30;;;20.30;95.80;;;;;;6153294;23;20425;-76
2022/08/06 00:11:28;;;;;;;3.93;3.53;;;20.30;95.80;;;;;;6154559;23;20738;-76
2022/08/06 00:13:56;;;;;;;4.77;4.27;;;20.20;95.80;;;;;;6154253;23;20434;-86
2022/08/06 00:16:23;;;;;;;5.80;4.70;;;20.20;95.90;;;;;;6117789;23;20439;-76
2022/08/06 00:18:53;;;;;;;3.53;3.23;;;20.20;95.90;;;;;;6151046;23;20469;-77
2022/08/06 00:21:20;;;;;;;7.00;5.90;;;20.20;95.90;;;;;;6143924;23;20421;-78
2022/08/06 00:23:50;;;;;;;8.40;7.10;;;20.10;96.00;;;;;;6154647;23;20437;-86
2022/08/06 00:26:17;;;;;;;3.80;3.40;;;20.10;95.90;;;;;;6155741;23;20782;-85
2022/08/06 00:28:47;;;;;;;7.90;7.10;;;20.10;95.90;;;;;;6155423;23;20441;-87
2022/08/06 00:31:15;;;;;;;7.87;6.00;;;20.10;95.90;;;;;;6155714;23;20433;-76
2022/08/06 00:33:42;;;;;;;5.60;4.60;;;20.00;95.80;;;;;;6156902;23;20442;-77
2022/08/06 00:36:11;;;;;;;5.50;4.30;;;20.00;95.70;;;;;;6153652;23;20512;-77
2022/08/06 00:38:40;;;;;;;2.93;2.20;;;19.90;95.70;;;;;;6156626;23;20957;-85
2022/08/06 00:41:07;;;;;;;3.23;2.87;;;19.90;95.70;;;;;;6157005;23;20748;-77
2022/08/06 00:43:34;;;;;;;6.70;5.00;;;19.90;95.70;;;;;;6154439;23;20980;-76
2022/08/06 00:46:01;;;;;;;3.80;3.20;;;19.80;95.70;;;;;;6153783;23;20500;-76
2022/08/06 00:48:28;;;;;;;1.90;1.63;;;19.80;95.60;;;;;;6153656;23;20806;-77
2022/08/06 00:50:55;;;;;;;3.23;2.93;;;19.70;95.70;;;;;;6153750;23;20517;-76
2022/08/06 00:53:23;;;;;;;2.43;2.03;;;19.70;95.70;;;;;;6154225;23;20440;-76
2022/08/06 00:55:50;;;;;;;1.80;1.70;;;19.70;95.90;;;;;;6153093;23;20508;-86
2022/08/06 00:58:18;;;;;;;2.80;1.70;;;19.60;95.80;;;;;;6153912;23;20436;-76
2022/08/06 01:00:45;;;;;;;4.50;3.93;;;19.60;95.70;;;;;;6153837;23;20441;-78
2022/08/06 01:03:16;;;;;;;2.37;2.17;;;19.50;95.70;;;;;;6154834;23;20517;-76
2022/08/06 01:05:43;;;;;;;4.50;3.77;;;19.60;95.70;;;;;;6158676;23;20448;-86
2022/08/06 01:08:10;;;;;;;3.20;2.90;;;19.50;95.80;;;;;;6166918;23;20440;-87
2022/08/06 01:10:39;;;;;;;3.10;2.80;;;19.50;95.80;;;;;;6158111;23;20437;-76
2022/08/06 01:13:06;;;;;;;7.00;3.50;;;19.50;96.10;;;;;;6155239;23;20437;-77
2022/08/06 01:15:34;;;;;;;4.10;3.13;;;19.50;95.70;;;;;;6155157;23;20909;-76
2022/08/06 01:18:08;;;;;;;1.80;1.70;;;19.40;95.80;;;;;;6142666;23;20500;-77
2022/08/06 01:20:48;;;;;;;2.27;1.53;;;19.40;95.70;;;;;;6181480;23;20472;-86
2022/08/06 01:23:35;;;;;;;4.13;3.50;;;19.40;95.50;;;;;;6192591;23;20499;-86
2022/08/06 01:26:29;;;;;;;4.77;4.27;;;19.40;95.40;;;;;;6189474;23;20445;-87
2022/08/06 01:29:01;;;;;;;3.20;2.77;;;19.40;95.50;;;;;;6192884;23;20451;-85
2022/08/06 01:31:33;;;;;;;2.33;1.40;;;19.40;95.40;;;;;;6191106;23;20432;-87
2022/08/06 01:34:06;;;;;;;5.10;4.20;;;19.40;95.30;;;;;;6194484;23;20444;-86
2022/08/06 01:36:40;;;;;;;8.93;7.13;;;19.30;95.30;;;;;;6194092;23;20440;-87
2022/08/06 01:39:08;;;;;;;5.70;4.23;;;19.20;95.50;;;;;;6188561;23;20432;-87
2022/08/06 01:41:44;;;;;;;2.80;2.10;;;19.20;95.50;;;;;;6189254;23;20437;-88
2022/08/06 01:44:17;;;;;;;11.70;9.80;;;19.20;95.40;;;;;;6186694;23;20498;-86
2022/08/06 01:46:47;;;;;;;5.17;4.67;;;19.20;95.30;;;;;;6187212;23;20448;-88
2022/08/06 01:49:17;;;;;;;4.90;3.90;;;19.20;95.30;;;;;;6188049;23;20452;-86
2022/08/06 01:51:47;;;;;;;16.23;11.50;;;19.20;95.30;;;;;;6188354;23;20943;-88
2022/08/06 01:54:15;;;;;;;5.57;4.70;;;19.20;95.50;;;;;;6188474;23;20809;-86
2022/08/06 01:56:45;;;;;;;18.33;15.20;;;19.20;95.50;;;;;;6191672;23;20497;-87
2022/08/06 01:59:17;;;;;;;8.07;7.20;;;19.20;95.60;;;;;;6190749;23;20437;-87
2022/08/06 02:01:49;;;;;;;8.70;6.30;;;19.20;95.60;;;;;;6188885;23;20510;-76
2022/08/06 02:04:18;;;;;;;2.73;2.53;;;19.10;95.50;;;;;;6185580;23;20499;-87
2022/08/06 02:06:47;;;;;;;4.50;4.10;;;19.10;95.70;;;;;;6184748;23;20521;-86
2022/08/06 02:09:18;;;;;;;11.13;7.17;;;19.10;95.50;;;;;;6167910;23;20510;-83
2022/08/06 02:11:51;;;;;;;10.50;7.80;;;19.10;95.60;;;;;;6165059;23;20436;-88
2022/08/06 02:14:21;;;;;;;7.47;6.20;;;19.00;95.70;;;;;;6185458;23;20447;-86
2022/08/06 02:16:50;;;;;;;5.63;4.53;;;19.00;95.70;;;;;;6185320;23;20784;-86
2022/08/06 02:19:21;;;;;;;7.03;5.53;;;19.00;95.80;;;;;;6183845;23;20460;-86
2022/08/06 02:21:49;;;;;;;2.70;1.80;;;18.90;95.90;;;;;;6184314;23;20532;-86
2022/08/06 02:24:16;;;;;;;2.40;1.70;;;18.90;95.90;;;;;;6183568;23;20439;-84
2022/08/06 02:26:45;;;;;;;2.27;1.20;;;18.90;96.00;;;;;;6184671;23;20516;-85
2022/08/06 02:29:17;;;;;;;1.10;1.00;;;18.90;96.00;;;;;;6182796;23;20745;-85
2022/08/06 02:31:46;;;;;;;2.10;1.20;;;18.90;96.00;;;;;;6184991;23;20444;-84
2022/08/06 02:34:13;;;;;;;1.50;0.97;;;18.90;96.10;;;;;;6184136;23;20501;-85
2022/08/06 02:36:50;;;;;;;2.73;0.90;;;18.90;96.10;;;;;;6185020;23;20467;-86
2022/08/06 02:39:23;;;;;;;2.87;1.47;;;18.80;96.20;;;;;;6186240;23;20502;-85
2022/08/06 02:42:01;;;;;;;2.40;1.30;;;18.80;96.30;;;;;;6187970;23;20439;-85
2022/08/06 02:44:38;;;;;;;1.67;1.00;;;18.80;96.50;;;;;;6188175;23;20432;-86
2022/08/06 02:47:12;;;;;;;3.27;1.20;;;18.70;96.40;;;;;;6163904;23;20452;-86
2022/08/06 02:49:44;;;;;;;2.20;1.37;;;18.70;96.30;;;;;;6177298;23;20431;-85
2022/08/06 02:52:16;;;;;;;2.83;1.10;;;18.70;96.50;;;;;;6192255;23;20446;-86
2022/08/06 02:54:49;;;;;;;1.10;1.00;;;18.70;96.60;;;;;;6192652;23;20447;-85
2022/08/06 02:57:23;;;;;;;3.27;1.30;;;18.60;96.50;;;;;;6187330;23;20520;-85
2022/08/06 02:59:54;;;;;;;1.30;1.20;;;18.60;96.50;;;;;;6188585;23;20455;-86
2022/08/06 03:02:27;;;;;;;0.97;0.97;;;18.60;96.60;;;;;;6187821;23;20432;-79
2022/08/06 03:04:55;;;;;;;1.73;1.17;;;18.50;96.60;;;;;;6185070;23;20475;-77
2022/08/06 03:07:26;;;;;;;1.20;1.10;;;18.50;96.60;;;;;;6185235;23;20440;-77
2022/08/06 03:09:54;;;;;;;1.93;1.23;;;18.50;96.70;;;;;;6184641;23;20495;-78
2022/08/06 03:12:21;;;;;;;1.60;1.40;;;18.50;96.70;;;;;;6185536;23;20519;-77
2022/08/06 03:14:50;;;;;;;1.10;1.00;;;18.50;96.60;;;;;;6184804;23;20436;-78
2022/08/06 03:17:18;;;;;;;2.40;1.07;;;18.50;96.50;;;;;;6184632;23;20505;-78
2022/08/06 03:19:47;;;;;;;2.30;1.10;;;18.40;96.50;;;;;;6184525;23;20468;-77
2022/08/06 03:22:17;;;;;;;1.20;1.03;;;18.40;96.50;;;;;;6185606;23;20440;-78
2022/08/06 03:24:46;;;;;;;1.40;1.20;;;18.40;96.60;;;;;;6184930;23;20440;-78
2022/08/06 03:27:15;;;;;;;2.87;1.20;;;18.30;96.50;;;;;;6185196;23;20517;-78
2022/08/06 03:29:44;;;;;;;1.93;1.00;;;18.30;96.60;;;;;;6202856;23;20529;-78
2022/08/06 03:32:13;;;;;;;2.40;1.13;;;18.30;96.70;;;;;;6185477;23;20443;-78
2022/08/06 03:34:41;;;;;;;1.40;1.10;;;18.20;96.60;;;;;;6184639;23;20470;-78
2022/08/06 03:37:10;;;;;;;1.30;1.20;;;18.20;96.70;;;;;;6185267;23;20469;-78
2022/08/06 03:39:40;;;;;;;2.83;1.00;;;18.20;96.60;;;;;;6184581;23;20784;-78
2022/08/06 03:42:08;;;;;;;1.10;1.00;;;18.20;96.80;;;;;;6185260;23;20439;-79
2022/08/06 03:44:35;;;;;;;1.17;1.07;;;18.10;96.80;;;;;;6184358;23;20478;-78
2022/08/06 03:47:06;;;;;;;1.70;1.10;;;18.10;96.80;;;;;;6185121;23;20511;-78
2022/08/06 03:49:39;;;;;;;3.53;1.63;;;18.10;96.90;;;;;;6184211;23;20460;-77
2022/08/06 03:52:13;;;;;;;1.83;0.97;;;18.10;97.00;;;;;;6186236;23;20424;-78
2022/08/06 03:54:44;;;;;;;1.87;1.17;;;18.00;97.00;;;;;;6184314;23;20496;-76
2022/08/06 03:57:16;;;;;;;1.00;0.90;;;18.00;97.00;;;;;;6185012;23;20475;-77
2022/08/06 03:59:45;;;;;;;1.37;1.10;;;18.00;96.90;;;;;;6206394;22;20431;-85
2022/08/06 04:02:15;;;;;;;1.10;1.00;;;18.00;97.00;;;;;;6210230;22;20415;-84
2022/08/06 04:04:43;;;;;;;1.43;1.17;;;18.00;97.00;;;;;;6197739;23;20436;-84
2022/08/06 04:07:13;;;;;;;2.07;1.00;;;18.00;97.10;;;;;;6200755;23;20439;-86
2022/08/06 04:09:41;;;;;;;1.83;1.30;;;18.00;97.10;;;;;;6209887;22;20418;-85
2022/08/06 04:12:10;;;;;;;1.97;1.07;;;17.90;97.00;;;;;;6208875;23;20534;-85
2022/08/06 04:14:37;;;;;;;4.63;1.80;;;17.90;97.10;;;;;;6203899;23;20463;-83
2022/08/06 04:17:06;;;;;;;1.93;1.00;;;17.90;97.10;;;;;;6202432;23;20439;-85
2022/08/06 04:19:34;;;;;;;1.50;1.20;;;17.90;97.20;;;;;;6199298;23;20447;-77
2022/08/06 04:22:01;;;;;;;2.40;1.20;;;17.90;97.30;;;;;;6183996;23;20483;-78
2022/08/06 04:24:35;;;;;;;2.00;1.10;;;17.90;97.30;;;;;;6186726;23;20440;-84
2022/08/06 04:27:06;;;;;;;2.73;1.30;;;17.90;97.30;;;;;;6208986;23;20507;-85
2022/08/06 04:29:34;;;;;;;2.40;1.67;;;17.90;97.40;;;;;;6209824;23;20492;-86
2022/08/06 04:32:03;;;;;;;1.77;1.57;;;17.90;97.40;;;;;;6209587;23;20861;-84
2022/08/06 04:34:31;;;;;;;3.73;1.33;;;17.90;97.30;;;;;;6206293;23;20434;-84
2022/08/06 04:37:00;;;;;;;2.20;1.13;;;17.90;97.30;;;;;;6209388;22;20429;-84
2022/08/06 04:39:28;;;;;;;1.77;1.40;;;17.90;97.30;;;;;;6211915;23;20415;-85
2022/08/06 04:41:58;;;;;;;1.43;1.30;;;18.00;97.40;;;;;;6211851;23;20418;-85
2022/08/06 04:44:27;;;;;;;3.27;1.53;;;18.00;97.30;;;;;;6213276;22;20427;-86
2022/08/06 04:46:58;;;;;;;3.00;1.60;;;18.00;97.30;;;;;;6208445;23;20442;-77
2022/08/06 04:49:49;;;;;;;1.60;1.40;;;18.00;97.40;;;;;;6204415;23;20441;-77
2022/08/06 04:52:23;;;;;;;1.30;1.20;;;18.00;97.40;;;;;;6175727;23;20484;-78
2022/08/06 04:54:50;;;;;;;2.10;1.50;;;18.00;97.40;;;;;;6186338;23;20497;-78
2022/08/06 04:57:18;;;;;;;2.60;1.83;;;18.00;97.40;;;;;;6185496;23;20425;-78
2022/08/06 04:59:46;;;;;;;3.53;1.13;;;18.00;97.50;;;;;;6186678;23;20435;-77
2022/08/06 05:02:13;;;;;;;2.40;1.50;;;18.00;97.50;;;;;;6184743;23;26381;-76
2022/08/06 05:04:40;;;;;;;1.70;1.30;;;18.00;97.40;;;;;;6186603;23;20440;-77
2022/08/06 05:07:13;;;;;;;1.43;1.33;;;18.00;97.40;;;;;;6185401;23;20442;-76
2022/08/06 05:09:40;;;;;;;2.00;1.40;;;18.00;97.30;;;;;;6186561;23;20791;-76
2022/08/06 05:12:12;;;;;;;1.30;1.13;;;18.00;97.40;;;;;;6186630;23;20436;-76
2022/08/06 05:14:47;;;;;;;1.80;1.40;;;18.00;97.40;;;;;;6186464;23;20508;-76
2022/08/06 05:17:18;;;;;;;3.50;1.40;;;18.00;97.30;;;;;;6185763;23;22639;-76
2022/08/06 05:19:47;;;;;;;1.67;1.10;;;18.00;97.40;;;;;;6186208;23;20528;-77
2022/08/06 05:22:19;;;;;;;2.60;1.40;;;18.00;97.40;;;;;;6185937;23;21507;-76
2022/08/06 05:24:47;;;;;;;1.67;1.40;;;18.00;97.30;;;;;;6186159;23;20446;-77
2022/08/06 05:27:15;;;;;;;2.13;1.20;;;18.00;97.40;;;;;;6185502;23;20444;-76
2022/08/06 05:29:43;;;;;;;1.47;1.37;;;18.00;97.50;;;;;;6186284;23;20464;-77
2022/08/06 05:32:11;;;;;;;1.67;1.30;;;18.00;97.50;;;;;;6185777;23;20439;-76
2022/08/06 05:34:38;;;;;;;1.30;1.00;;;18.00;97.40;;;;;;6186989;23;20953;-77
2022/08/06 05:37:05;;;;;;;1.40;1.30;;;18.00;97.40;;;;;;6185573;23;20460;-77
2022/08/06 05:39:32;;;;;;;2.17;1.27;;;18.00;97.50;;;;;;6186235;23;20431;-77
2022/08/06 05:41:59;;;;;;;1.23;1.10;;;18.00;97.60;;;;;;6185878;23;20461;-76
2022/08/06 05:44:27;;;;;;;4.20;1.60;;;17.90;97.60;;;;;;6186523;23;20426;-76
2022/08/06 05:47:00;;;;;;;2.50;1.33;;;17.90;97.60;;;;;;6186821;23;20449;-77
2022/08/06 05:49:30;;;;;;;3.73;1.37;;;18.00;97.70;;;;;;6196191;23;20446;-85
2022/08/06 05:52:08;;;;;;;1.87;1.50;;;18.00;97.70;;;;;;6197471;23;20447;-77
2022/08/06 05:54:47;;;;;;;2.70;1.70;;;18.00;97.60;;;;;;6185672;23;20914;-78
2022/08/06 05:57:27;;;;;;;2.23;1.40;;;18.00;97.60;;;;;;6185269;23;20479;-76
2022/08/06 06:00:00;;;;;;;1.87;1.40;;;18.10;97.60;;;;;;6186036;23;20458;-78
2022/08/06 06:02:30;;;;;;;2.60;1.60;;;18.10;97.60;;;;;;6185245;23;20464;-77
2022/08/06 06:04:59;;;;;;;3.10;1.20;;;18.10;97.60;;;;;;6185982;23;20523;-77
2022/08/06 06:07:27;;;;;;;1.73;1.10;;;18.20;97.60;;;;;;6185185;23;21023;-77
2022/08/06 06:09:56;;;;;;;1.37;1.27;;;18.20;97.50;;;;;;6187912;23;20435;-78
2022/08/06 06:12:24;;;;;;;2.00;1.47;;;18.30;97.50;;;;;;6185546;23;20495;-76
2022/08/06 06:14:52;;;;;;;1.80;1.40;;;18.40;97.40;;;;;;6185635;23;20431;-77
2022/08/06 06:17:36;;;;;;;1.93;1.30;;;18.40;97.40;;;;;;6185588;23;20945;-76
2022/08/06 06:20:12;;;;;;;1.63;1.10;;;18.40;97.00;;;;;;6185416;23;20451;-77
2022/08/06 06:22:47;;;;;;;2.40;1.03;;;18.50;96.90;;;;;;6185525;23;20695;-76
2022/08/06 06:25:21;;;;;;;3.17;1.77;;;18.60;96.90;;;;;;6185500;23;20439;-76
2022/08/06 06:27:58;;;;;;;1.43;1.20;;;18.60;96.70;;;;;;6185261;23;20924;-77
2022/08/06 06:30:32;;;;;;;3.00;1.53;;;18.70;96.70;;;;;;6184885;23;20470;-77
2022/08/06 06:33:14;;;;;;;2.23;1.40;;;18.80;96.50;;;;;;6185317;23;20436;-76
2022/08/06 06:35:51;;;;;;;1.63;1.47;;;18.90;96.70;;;;;;6185066;23;20448;-77
2022/08/06 06:38:38;;;;;;;2.17;1.50;;;19.00;96.20;;;;;;6185955;23;20439;-77
2022/08/06 06:41:13;;;;;;;1.73;1.60;;;19.00;96.10;;;;;;6185841;23;20425;-77
2022/08/06 06:43:45;;;;;;;1.57;1.47;;;19.10;96.10;;;;;;6185586;23;20966;-77
2022/08/06 06:46:21;;;;;;;1.63;1.40;;;19.10;95.90;;;;;;6184844;23;20924;-76
2022/08/06 06:48:52;;;;;;;7.63;3.70;;;19.20;95.70;;;;;;6185697;23;20433;-76
2022/08/06 06:51:26;;;;;;;3.40;2.40;;;19.30;95.70;;;;;;6183782;23;20816;-77
2022/08/06 06:53:56;;;;;;;5.90;3.87;;;19.40;95.50;;;;;;6149170;23;20441;-77
2022/08/06 06:56:27;;;;;;;3.47;1.90;;;19.50;95.30;;;;;;6183017;23;20750;-77
2022/08/06 06:59:13;;;;;;;2.20;2.00;;;19.70;95.20;;;;;;6185322;23;20437;-77
2022/08/06 07:01:41;;;;;;;2.57;2.37;;;19.90;95.20;;;;;;6170388;23;20445;-77
2022/08/06 07:04:12;;;;;;;1.90;1.80;;;20.00;94.90;;;;;;6185608;23;20433;-77
2022/08/06 07:06:41;;;;;;;2.57;2.10;;;20.10;94.60;;;;;;6183816;23;20865;-77
2022/08/06 07:09:11;;;;;;;2.70;2.20;;;20.20;94.50;;;;;;6185472;23;20500;-76
2022/08/06 07:11:39;;;;;;;5.80;2.40;;;20.30;94.20;;;;;;6184841;23;21027;-78
2022/08/06 07:14:07;;;;;;;3.90;3.00;;;20.40;93.70;;;;;;6185421;23;20435;-78
2022/08/06 07:16:35;;;;;;;3.40;2.83;;;20.50;93.70;;;;;;6184856;23;20804;-78
2022/08/06 07:19:04;;;;;;;2.47;2.27;;;20.60;93.60;;;;;;6185622;23;20826;-78
2022/08/06 07:21:33;;;;;;;2.27;1.83;;;20.60;93.40;;;;;;6184850;23;20505;-77
2022/08/06 07:24:01;;;;;;;2.80;2.30;;;20.80;93.10;;;;;;6185467;23;20506;-78
2022/08/06 07:26:30;;;;;;;2.67;2.27;;;20.80;92.90;;;;;;6184720;23;20496;-77
2022/08/06 07:28:58;;;;;;;3.00;1.97;;;20.90;92.90;;;;;;6185226;23;20435;-77
2022/08/06 07:31:27;;;;;;;2.30;1.67;;;21.00;92.90;;;;;;6184396;23;20444;-78
2022/08/06 07:33:57;;;;;;;1.90;1.57;;;21.20;92.70;;;;;;6185431;23;20949;-78
2022/08/06 07:36:28;;;;;;;5.90;2.10;;;21.30;92.60;;;;;;6183819;23;20439;-77
2022/08/06 07:39:00;;;;;;;2.23;1.50;;;21.50;92.20;;;;;;6185525;23;20435;-77
2022/08/06 07:41:28;;;;;;;2.47;1.37;;;21.70;91.90;;;;;;6184764;23;21020;-78
2022/08/06 07:44:00;;;;;;;3.03;1.63;;;21.80;91.40;;;;;;6185071;23;20900;-77
2022/08/06 07:46:40;;;;;;;1.93;1.40;;;21.90;91.20;;;;;;6184297;23;20519;-78
2022/08/06 07:49:09;;;;;;;2.60;1.60;;;22.00;91.40;;;;;;6184682;23;20458;-78
2022/08/06 07:51:40;;;;;;;2.23;1.60;;;22.10;90.80;;;;;;6184269;23;20528;-77
2022/08/06 07:54:09;;;;;;;4.47;1.60;;;22.20;90.40;;;;;;6185220;23;20464;-78
2022/08/06 07:56:38;;;;;;;1.37;1.27;;;22.20;90.00;;;;;;6184236;23;20468;-78
2022/08/06 07:59:06;;;;;;;2.07;1.63;;;22.20;89.50;;;;;;6185307;23;20499;-78
2022/08/06 08:01:33;;;;;;;2.83;2.17;;;22.10;89.30;;;;;;6184854;23;20429;-78
2022/08/06 08:06:45;;;;;;;4.70;2.10;;;22.10;89.40;;;;;;6167874;23;20566;-78
2022/08/06 08:09:17;;;;;;;2.30;1.90;;;22.10;89.10;;;;;;6185209;23;20436;-77
2022/08/06 08:11:47;;;;;;;2.97;1.63;;;22.20;88.70;;;;;;6183768;23;20476;-77
2022/08/06 08:14:19;;;;;;;2.90;1.70;;;22.20;88.00;;;;;;6186663;23;20440;-77
2022/08/06 08:16:46;;;;;;;2.47;2.00;;;22.30;88.00;;;;;;6185995;23;20490;-78
2022/08/06 08:19:26;;;;;;;2.30;2.03;;;22.30;87.70;;;;;;6186975;23;20448;-77
2022/08/06 08:21:53;;;;;;;4.00;2.67;;;22.30;87.70;;;;;;6187251;23;20500;-86
2022/08/06 08:24:21;;;;;;;2.00;1.90;;;22.40;86.50;;;;;;6187636;23;20714;-86
2022/08/06 08:26:48;;;;;;;3.53;1.70;;;22.40;85.00;;;;;;6186357;23;20535;-78
2022/08/06 08:29:15;;;;;;;2.40;2.20;;;22.40;85.10;;;;;;6186959;23;20453;-77
2022/08/06 08:31:42;;;;;;;1.53;1.27;;;22.40;84.40;;;;;;6186079;23;20475;-77
2022/08/06 08:34:11;;;;;;;3.27;1.63;;;22.40;84.60;;;;;;6186989;23;20490;-78
2022/08/06 08:36:38;;;;;;;2.90;1.30;;;22.50;84.20;;;;;;6185980;23;20447;-77
2022/08/06 08:39:06;;;;;;;1.80;1.10;;;22.50;83.50;;;;;;6186909;23;20768;-76
2022/08/06 08:41:37;;;;;;;1.17;1.00;;;22.50;83.60;;;;;;6186356;23;20489;-76
2022/08/06 08:44:06;;;;;;;1.20;1.10;;;22.60;82.80;;;;;;6186857;23;20429;-76
2022/08/06 08:46:35;;;;;;;1.30;1.20;;;22.70;82.20;;;;;;6186729;23;20447;-86
2022/08/06 08:49:05;;;;;;;1.73;1.53;;;22.70;81.50;;;;;;6187659;23;20453;-87
2022/08/06 08:51:34;;;;;;;2.07;1.00;;;22.80;80.60;;;;;;6186989;23;20495;-77
2022/08/06 08:54:06;;;;;;;1.30;1.20;;;22.80;80.40;;;;;;6186201;23;20425;-77
2022/08/06 08:56:35;;;;;;;2.60;1.20;;;22.80;80.30;;;;;;6185925;23;20464;-78
2022/08/06 08:59:02;;;;;;;1.73;1.20;;;22.90;77.60;;;;;;6187791;23;21000;-87
2022/08/06 09:01:30;;;;;;;3.50;1.90;;;22.90;77.60;;;;;;6189768;23;20927;-85
2022/08/06 09:03:57;;;;;;;1.30;1.20;;;22.90;77.60;;;;;;6188196;23;20556;-85
2022/08/06 09:06:24;;;;;;;1.70;1.20;;;23.00;78.30;;;;;;6187683;23;20436;-76
2022/08/06 09:08:52;;;;;;;1.13;1.00;;;23.10;77.40;;;;;;6185642;23;20439;-77
2022/08/06 09:11:19;;;;;;;1.37;1.07;;;23.10;75.70;;;;;;6186795;23;20499;-87
2022/08/06 09:13:48;;;;;;;2.20;1.27;;;23.10;75.60;;;;;;6186758;23;20432;-77
2022/08/06 09:16:15;;;;;;;2.00;1.07;;;23.00;75.80;;;;;;6186336;23;20503;-76
2022/08/06 09:18:44;;;;;;;2.03;1.10;;;23.00;75.70;;;;;;6184980;23;20952;-77
2022/08/06 09:21:14;;;;;;;1.50;1.00;;;23.00;76.00;;;;;;6187687;23;20443;-78
2022/08/06 09:23:41;;;;;;;1.10;1.00;;;22.90;76.40;;;;;;6186701;23;20447;-85
2022/08/06 09:26:08;;;;;;;1.20;1.07;;;22.80;76.30;;;;;;6186953;23;20464;-76
2022/08/06 09:28:46;;;;;;;1.63;1.20;;;22.80;73.60;;;;;;6185799;23;20995;-76
2022/08/06 09:31:19;;;;;;;3.67;2.07;;;22.90;73.80;;;;;;6186954;23;20439;-76
2022/08/06 09:33:55;;;;;;;1.93;1.30;;;23.00;74.00;;;;;;6187360;23;20475;-85
2022/08/06 09:36:23;;;;;;;2.57;2.37;;;23.00;74.30;;;;;;6184762;23;20456;-77
2022/08/06 09:38:56;;;;;;;3.17;1.77;;;23.00;74.60;;;;;;6185529;23;20433;-77
2022/08/06 09:41:26;;;;;;;3.30;2.17;;;23.00;74.60;;;;;;6185424;23;20927;-76
2022/08/06 09:43:56;;;;;;;3.13;1.80;;;22.90;74.80;;;;;;6185772;23;20797;-77
2022/08/06 09:46:40;;;;;;;4.50;2.70;;;23.00;75.10;;;;;;6185883;23;20710;-78
2022/08/06 09:49:10;;;;;;;1.50;1.40;;;23.00;75.30;;;;;;6187281;23;20443;-86
2022/08/06 09:51:38;;;;;;;1.80;1.47;;;23.00;75.50;;;;;;6187519;23;20449;-87
2022/08/06 09:54:08;;;;;;;1.70;1.13;;;23.00;74.90;;;;;;6187656;23;20729;-86
2022/08/06 09:56:36;;;;;;;1.70;1.40;;;23.00;73.60;;;;;;6185961;23;20448;-76
2022/08/06 09:59:06;;;;;;;2.37;1.40;;;23.00;73.90;;;;;;6192125;23;20442;-87
2022/08/06 10:01:40;;;;;;;1.87;1.50;;;23.10;74.40;;;;;;6185937;23;20433;-77
2022/08/06 10:04:12;;;;;;;1.70;1.40;;;23.10;74.40;;;;;;6185773;23;20456;-77
2022/08/06 10:06:52;;;;;;;2.00;1.50;;;23.10;74.50;;;;;;6157190;23;20453;-75
2022/08/06 10:09:19;;;;;;;1.90;1.00;;;23.20;74.80;;;;;;6178650;23;20433;-86
2022/08/06 10:11:46;;;;;;;1.37;1.00;;;23.20;73.50;;;;;;6186493;23;20448;-86
2022/08/06 10:14:22;;;;;;;2.03;1.03;;;23.20;72.40;;;;;;6186280;23;20428;-76
